Time,TemperatureF,DewpointF,PressureIn,WindDirection,WindDirectionDegrees,WindSpeedMPH,WindSpeedGustMPH,Humidity,HourlyPrecipIn,Conditions,Clouds,dailyrainin,SoftwareType,DateUTC
2013-03-19 00:00:00,12.1,3.2,29.74,NW,313,16.0,16.0,67,0.00,CLR,,0.00,WeatherDisplay:10.37,2013-03-19 05:00:00,
2013-03-19 00:05:00,12.0,3.2,29.75,West,281,10.0,12.0,67,0.00,CLR,,0.00,WeatherDisplay:10.37,2013-03-19 05:05:00,
2013-03-19 00:10:00,12.0,2.8,29.74,West,278,10.0,12.0,66,0.00,CLR,,0.00,WeatherDisplay:10.37,2013-03-19 05:10:00,
2013-03-19 00:15:00,11.9,2.7,29.75,West,280,8.0,15.0,66,0.00,CLR,,0.00,WeatherDisplay:10.37,2013-03-19 05:15:00,
2013-03-19 00:20:00,11.8,2.7,29.76,West,264,12.0,17.0,66,0.00,CLR,,0.00,WeatherDisplay:10.37,2013-03-19 05:20:00,
2013-03-19 00:25:00,11.7,2.5,29.75,West,262,5.0,6.0,66,0.00,CLR,,0.00,WeatherDisplay:10.37,2013-03-19 05:25:00,
2013-03-19 00:30:00,11.5,2.3,29.75,West,274,9.0,15.0,66,0.00,CLR,,0.00,WeatherDisplay:10.37,2013-03-19 05:30:00,
2013-03-19 00:35:00,11.5,2.6,29.76,WNW,287,12.0,16.0,67,0.00,CLR,,0.00,WeatherDisplay:10.37,2013-03-19 05:35:00,
2013-03-19 00:40:00,11.5,2.6,29.75,WNW,285,5.0,10.0,67,0.00,CLR,,0.00,WeatherDisplay:10.37,2013-03-19 05:40:00,
2013-03-19 00:45:00,11.2,2.4,29.75,West,277,10.0,10.0,67,0.00,CLR,,0.00,WeatherDisplay:10.37,2013-03-19 05:45:00,
2013-03-19 00:50:00,11.1,2.3,29.76,WNW,302,7.0,12.0,67,0.00,CLR,,0.00,WeatherDisplay:10.37,2013-03-19 05:50:00,
2013-03-19 00:55:00,11.1,2.3,29.76,WNW,301,10.0,11.0,67,0.00,CLR,,0.00,WeatherDisplay:10.37,2013-03-19 05:55:00,
2013-03-19 01:00:00,10.9,2.1,29.76,NW,305,15.0,16.0,67,0.00,CLR,,0.00,WeatherDisplay:10.37,2013-03-19 06:00:00,
2013-03-19 01:05:00,10.9,2.1,29.76,WNW,298,10.0,16.0,67,0.00,CLR,,0.00,WeatherDisplay:10.37,2013-03-19 06:05:00,
2013-03-19 01:10:00,10.9,2.1,29.77,West,280,13.0,13.0,67,0.00,CLR,,0.00,WeatherDisplay:10.37,2013-03-19 06:10:00,
2013-03-19 01:15:00,10.7,1.9,29.76,WNW,284,18.0,18.0,67,0.00,CLR,,0.00,WeatherDisplay:10.37,2013-03-19 06:15:00,
2013-03-19 01:20:00,10.6,2.1,29.76,WNW,286,8.0,10.0,68,0.00,CLR,,0.00,WeatherDisplay:10.37,2013-03-19 06:20:00,
2013-03-19 01:25:00,10.6,2.1,29.76,West,278,0.0,10.0,68,0.00,CLR,,0.00,WeatherDisplay:10.37,2013-03-19 06:25:00,
2013-03-19 01:30:00,10.3,1.8,29.77,WNW,289,9.0,9.0,68,0.00,CLR,,0.00,WeatherDisplay:10.37,2013-03-19 06:30:00,
2013-03-19 01:35:00,10.2,1.7,29.77,WNW,300,9.0,10.0,68,0.00,CLR,,0.00,WeatherDisplay:10.37,2013-03-19 06:35:00,
2013-03-19 01:40:00,10.2,1.7,29.77,West,273,15.0,15.0,68,0.00,CLR,,0.00,WeatherDisplay:10.37,2013-03-19 06:40:00,
2013-03-19 01:45:00,10.2,1.7,29.77,West,272,9.0,12.0,68,0.00,CLR,,0.00,WeatherDisplay:10.37,2013-03-19 06:45:00,
2013-03-19 01:50:00,10.0,1.6,29.77,WNW,283,7.0,7.0,68,0.00,CLR,,0.00,WeatherDisplay:10.37,2013-03-19 06:50:00,
2013-03-19 01:55:00,10.0,1.6,29.77,WNW,288,12.0,12.0,68,0.00,CLR,,0.00,WeatherDisplay:10.37,2013-03-19 06:55:00,
2013-03-19 02:00:00,9.7,1.2,29.77,WNW,289,13.0,13.0,68,0.00,CLR,,0.00,WeatherDisplay:10.37,2013-03-19 07:00:00,
2013-03-19 02:05:00,9.7,1.2,29.78,WNW,288,7.0,12.0,68,0.00,CLR,,0.00,WeatherDisplay:10.37,2013-03-19 07:05:00,
2013-03-19 02:10:00,9.7,1.2,29.78,WNW,290,13.0,13.0,68,0.00,CLR,,0.00,WeatherDisplay:10.37,2013-03-19 07:10:00,
2013-03-19 02:15:00,9.7,1.2,29.78,WNW,294,10.0,10.0,68,0.00,CLR,,0.00,WeatherDisplay:10.37,2013-03-19 07:15:00,
2013-03-19 02:20:00,9.7,1.2,29.79,WNW,285,6.0,8.0,68,0.00,CLR,,0.00,WeatherDisplay:10.37,2013-03-19 07:20:00,
2013-03-19 02:25:00,9.7,1.2,29.78,WNW,298,8.0,15.0,68,0.00,CLR,,0.00,WeatherDisplay:10.37,2013-03-19 07:25:00,
2013-03-19 02:30:00,9.7,1.2,29.79,WNW,296,10.0,20.0,68,0.00,CLR,,0.00,WeatherDisplay:10.37,2013-03-19 07:30:00,
2013-03-19 02:35:00,9.7,1.2,29.79,WNW,299,13.0,20.0,68,0.00,CLR,,0.00,WeatherDisplay:10.37,2013-03-19 07:35:00,
2013-03-19 02:40:00,9.7,1.2,29.80,NW,309,14.0,14.0,68,0.00,CLR,,0.00,WeatherDisplay:10.37,2013-03-19 07:40:00,
2013-03-19 02:45:00,9.7,1.2,29.79,WNW,293,12.0,13.0,68,0.00,CLR,,0.00,WeatherDisplay:10.37,2013-03-19 07:45:00,
2013-03-19 02:50:00,9.7,1.2,29.79,WNW,282,8.0,9.0,68,0.00,CLR,,0.00,WeatherDisplay:10.37,2013-03-19 07:50:00,
2013-03-19 02:55:00,9.7,1.2,29.79,West,275,9.0,9.0,68,0.00,CLR,,0.00,WeatherDisplay:10.37,2013-03-19 07:55:00,
2013-03-19 03:00:00,9.7,1.2,29.80,West,272,12.0,12.0,68,0.00,CLR,,0.00,WeatherDisplay:10.37,2013-03-19 08:00:00,
2013-03-19 03:05:00,9.7,1.2,29.80,WNW,285,13.0,13.0,68,0.00,CLR,,0.00,WeatherDisplay:10.37,2013-03-19 08:05:00,
2013-03-19 03:10:00,9.7,1.2,29.80,WNW,296,9.0,9.0,68,0.00,CLR,,0.00,WeatherDisplay:10.37,2013-03-19 08:10:00,
2013-03-19 03:15:00,9.7,1.2,29.80,West,279,15.0,15.0,68,0.00,CLR,,0.00,WeatherDisplay:10.37,2013-03-19 08:15:00,
2013-03-19 03:20:00,9.6,1.1,29.80,West,273,6.0,7.0,68,0.00,CLR,,0.00,WeatherDisplay:10.37,2013-03-19 08:20:00,
2013-03-19 03:25:00,9.5,1.1,29.80,WNW,286,15.0,15.0,68,0.00,CLR,,0.00,WeatherDisplay:10.37,2013-03-19 08:25:00,
2013-03-19 03:30:00,9.3,0.9,29.80,West,279,16.0,16.0,68,0.00,CLR,,0.00,WeatherDisplay:10.37,2013-03-19 08:30:00,
2013-03-19 03:35:00,9.3,0.9,29.80,West,274,12.0,12.0,68,0.00,CLR,,0.00,WeatherDisplay:10.37,2013-03-19 08:35:00,
2013-03-19 03:40:00,9.3,0.8,29.80,WNW,290,9.0,12.0,68,0.00,CLR,,0.00,WeatherDisplay:10.37,2013-03-19 08:40:00,
2013-03-19 03:45:00,9.1,0.7,29.80,WNW,298,5.0,12.0,68,0.00,CLR,,0.00,WeatherDisplay:10.37,2013-03-19 08:45:00,
2013-03-19 03:50:00,9.1,1.0,29.80,WNW,290,23.0,23.0,69,0.00,CLR,,0.00,WeatherDisplay:10.37,2013-03-19 08:50:00,
2013-03-19 03:55:00,9.0,0.9,29.80,WNW,287,12.0,13.0,69,0.00,CLR,,0.00,WeatherDisplay:10.37,2013-03-19 08:55:00,
2013-03-19 04:00:00,8.8,0.7,29.80,WNW,286,9.0,10.0,69,0.00,CLR,,0.00,WeatherDisplay:10.37,2013-03-19 09:00:00,
2013-03-19 04:05:00,8.8,0.7,29.81,West,269,14.0,14.0,69,0.00,CLR,,0.00,WeatherDisplay:10.37,2013-03-19 09:05:00,
2013-03-19 04:10:00,8.8,0.7,29.81,West,276,12.0,14.0,69,0.00,CLR,,0.00,WeatherDisplay:10.37,2013-03-19 09:10:00,
2013-03-19 04:15:00,8.6,0.5,29.81,WNW,294,8.0,11.0,69,0.00,CLR,,0.00,WeatherDisplay:10.37,2013-03-19 09:15:00,
2013-03-19 04:20:00,8.6,0.5,29.81,WNW,297,5.0,8.0,69,0.00,CLR,,0.00,WeatherDisplay:10.37,2013-03-19 09:20:00,
2013-03-19 04:25:00,8.4,0.3,29.81,WNW,294,12.0,12.0,69,0.00,CLR,,0.00,WeatherDisplay:10.37,2013-03-19 09:25:00,
2013-03-19 04:30:00,8.4,0.3,29.81,WNW,292,6.0,14.0,69,0.00,CLR,,0.00,WeatherDisplay:10.37,2013-03-19 09:30:00,
2013-03-19 04:35:00,8.4,0.3,29.81,WNW,294,1.0,14.0,69,0.00,CLR,,0.00,WeatherDisplay:10.37,2013-03-19 09:35:00,
2013-03-19 04:40:00,8.4,0.3,29.81,NW,307,8.0,9.0,69,0.00,CLR,,0.00,WeatherDisplay:10.37,2013-03-19 09:40:00,
2013-03-19 04:45:00,8.3,0.2,29.82,WNW,292,12.0,12.0,69,0.00,CLR,,0.00,WeatherDisplay:10.37,2013-03-19 09:45:00,
2013-03-19 04:50:00,8.2,0.2,29.82,WNW,282,8.0,10.0,69,0.00,CLR,,0.00,WeatherDisplay:10.37,2013-03-19 09:50:00,
2013-03-19 04:55:00,8.2,0.2,29.82,West,275,8.0,8.0,69,0.00,CLR,,0.00,WeatherDisplay:10.37,2013-03-19 09:55:00,
2013-03-19 05:00:00,8.2,0.2,29.82,West,270,1.0,12.0,69,0.00,CLR,,0.00,WeatherDisplay:10.37,2013-03-19 10:00:00,
2013-03-19 05:05:00,7.9,0.1,29.83,West,270,7.0,14.0,70,0.00,CLR,,0.00,WeatherDisplay:10.37,2013-03-19 10:05:00,
2013-03-19 05:10:00,7.9,0.1,29.83,West,275,12.0,12.0,70,0.00,CLR,,0.00,WeatherDisplay:10.37,2013-03-19 10:10:00,
2013-03-19 05:15:00,7.9,0.1,29.83,WNW,284,9.0,9.0,70,0.00,CLR,,0.00,WeatherDisplay:10.37,2013-03-19 10:15:00,
2013-03-19 05:20:00,7.9,-0.1,29.84,West,277,10.0,10.0,69,0.00,CLR,,0.00,WeatherDisplay:10.37,2013-03-19 10:20:00,
2013-03-19 05:25:00,7.9,-0.2,29.84,West,278,12.0,12.0,69,0.00,CLR,,0.00,WeatherDisplay:10.37,2013-03-19 10:25:00,
2013-03-19 05:30:00,7.9,-0.2,29.84,WNW,291,7.0,10.0,69,0.00,CLR,,0.00,WeatherDisplay:10.37,2013-03-19 10:30:00,
2013-03-19 05:35:00,7.9,-0.2,29.84,West,275,9.0,10.0,69,0.00,CLR,,0.00,WeatherDisplay:10.37,2013-03-19 10:35:00,
2013-03-19 05:40:00,7.9,-0.2,29.84,West,269,16.0,16.0,69,0.00,CLR,,0.00,WeatherDisplay:10.37,2013-03-19 10:40:00,
2013-03-19 05:45:00,7.9,-0.2,29.84,West,272,12.0,13.0,69,0.00,CLR,,0.00,WeatherDisplay:10.37,2013-03-19 10:45:00,
2013-03-19 05:50:00,7.9,-0.2,29.84,West,275,7.0,12.0,69,0.00,CLR,,0.00,WeatherDisplay:10.37,2013-03-19 10:50:00,
2013-03-19 05:55:00,7.9,-0.2,29.84,West,270,14.0,14.0,69,0.00,CLR,,0.00,WeatherDisplay:10.37,2013-03-19 10:55:00,
2013-03-19 06:00:00,7.7,-0.4,29.85,WNW,283,15.0,15.0,69,0.00,CLR,,0.00,WeatherDisplay:10.37,2013-03-19 11:00:00,
2013-03-19 06:05:00,7.7,-0.4,29.85,WNW,289,10.0,12.0,69,0.00,CLR,,0.00,WeatherDisplay:10.37,2013-03-19 11:05:00,
2013-03-19 06:10:00,7.5,-0.5,29.85,West,278,14.0,14.0,69,0.00,CLR,,0.00,WeatherDisplay:10.37,2013-03-19 11:10:00,
2013-03-19 06:15:00,7.5,-0.5,29.85,West,275,12.0,12.0,69,0.00,CLR,,0.00,WeatherDisplay:10.37,2013-03-19 11:15:00,
2013-03-19 06:20:00,7.5,-0.5,29.86,WNW,292,5.0,12.0,69,0.00,CLR,,0.00,WeatherDisplay:10.37,2013-03-19 11:20:00,
2013-03-19 06:25:00,7.5,-0.5,29.86,WNW,298,10.0,10.0,69,0.00,CLR,,0.00,WeatherDisplay:10.37,2013-03-19 11:25:00,
2013-03-19 06:30:00,7.3,-0.7,29.86,WNW,294,2.0,9.0,69,0.00,CLR,,0.00,WeatherDisplay:10.37,2013-03-19 11:30:00,
2013-03-19 06:35:00,7.3,-0.7,29.87,NW,307,15.0,17.0,69,0.00,CLR,,0.00,WeatherDisplay:10.37,2013-03-19 11:35:00,
2013-03-19 06:40:00,7.2,-0.9,29.87,WNW,302,12.0,12.0,69,0.00,CLR,,0.00,WeatherDisplay:10.37,2013-03-19 11:40:00,
2013-03-19 06:45:00,7.0,-1.0,29.87,WNW,300,7.0,7.0,69,0.00,CLR,,0.00,WeatherDisplay:10.37,2013-03-19 11:45:00,
2013-03-19 06:50:00,7.0,-1.1,29.88,WNW,296,7.0,7.0,69,0.00,CLR,,0.00,WeatherDisplay:10.37,2013-03-19 11:50:00,
2013-03-19 06:55:00,7.0,-1.1,29.88,NW,309,8.0,8.0,69,0.00,CLR,,0.00,WeatherDisplay:10.37,2013-03-19 11:55:00,
2013-03-19 07:00:00,6.6,-1.4,29.88,WNW,299,0.0,8.0,69,0.00,CLR,,0.00,WeatherDisplay:10.37,2013-03-19 12:00:00,
2013-03-19 07:05:00,6.6,-1.4,29.89,West,280,8.0,8.0,69,0.00,CLR,,0.00,WeatherDisplay:10.37,2013-03-19 12:05:00,
2013-03-19 07:10:00,6.4,-1.6,29.89,WNW,291,0.0,8.0,69,0.00,CLR,,0.00,WeatherDisplay:10.37,2013-03-19 12:10:00,
2013-03-19 07:15:00,6.4,-1.6,29.89,WNW,284,3.0,13.0,69,0.00,CLR,,0.00,WeatherDisplay:10.37,2013-03-19 12:15:00,
2013-03-19 07:20:00,6.1,-1.9,29.90,West,280,10.0,13.0,69,0.00,CLR,,0.00,WeatherDisplay:10.37,2013-03-19 12:20:00,
2013-03-19 07:25:00,6.1,-1.9,29.90,West,277,1.0,9.0,69,0.00,CLR,,0.00,WeatherDisplay:10.37,2013-03-19 12:25:00,
2013-03-19 07:30:00,6.1,-1.9,29.90,West,272,6.0,9.0,69,0.00,CLR,,0.00,WeatherDisplay:10.37,2013-03-19 12:30:00,
2013-03-19 07:35:00,6.1,-1.9,29.90,West,280,2.0,9.0,69,0.00,CLR,,0.00,WeatherDisplay:10.37,2013-03-19 12:35:00,
2013-03-19 07:40:00,6.1,-1.9,29.91,WNW,285,10.0,12.0,69,0.00,CLR,,0.00,WeatherDisplay:10.37,2013-03-19 12:40:00,
2013-03-19 07:45:00,6.1,-1.9,29.91,West,281,9.0,9.0,69,0.00,CLR,,0.00,WeatherDisplay:10.37,2013-03-19 12:45:00,
2013-03-19 07:50:00,6.3,-1.7,29.92,WNW,283,15.0,15.0,69,0.00,CLR,,0.00,WeatherDisplay:10.37,2013-03-19 12:50:00,
2013-03-19 07:55:00,6.4,-1.9,29.92,WNW,293,0.0,13.0,68,0.00,CLR,,0.00,WeatherDisplay:10.37,2013-03-19 12:55:00,
2013-03-19 08:00:00,6.6,-1.8,29.92,West,277,6.0,10.0,68,0.00,CLR,,0.00,WeatherDisplay:10.37,2013-03-19 13:00:00,
2013-03-19 08:05:00,6.6,-1.7,29.92,West,280,10.0,12.0,68,0.00,CLR,,0.00,WeatherDisplay:10.37,2013-03-19 13:05:00,
2013-03-19 08:10:00,6.7,-1.7,29.93,WNW,289,10.0,10.0,68,0.00,CLR,,0.00,WeatherDisplay:10.37,2013-03-19 13:10:00,
2013-03-19 08:15:00,7.0,-1.4,29.93,WNW,284,5.0,5.0,68,0.00,CLR,,0.00,WeatherDisplay:10.37,2013-03-19 13:15:00,
2013-03-19 08:20:00,7.2,-1.5,29.94,West,279,3.0,7.0,67,0.00,CLR,,0.00,WeatherDisplay:10.37,2013-03-19 13:20:00,
2013-03-19 08:25:00,7.2,-1.5,29.93,West,273,0.0,0.0,67,0.00,CLR,,0.00,WeatherDisplay:10.37,2013-03-19 13:25:00,
2013-03-19 08:30:00,7.3,-1.6,29.94,West,277,7.0,7.0,66,0.00,CLR,,0.00,WeatherDisplay:10.37,2013-03-19 13:30:00,
2013-03-19 08:35:00,7.4,-1.6,29.94,WNW,288,14.0,14.0,66,0.00,CLR,,0.00,WeatherDisplay:10.37,2013-03-19 13:35:00,
2013-03-19 08:40:00,7.5,-1.5,29.94,West,281,15.0,15.0,66,0.00,CLR,,0.00,WeatherDisplay:10.37,2013-03-19 13:40:00,
2013-03-19 08:45:00,7.8,-1.2,29.95,West,267,6.0,10.0,66,0.00,CLR,,0.00,WeatherDisplay:10.37,2013-03-19 13:45:00,
2013-03-19 08:50:00,7.9,-1.1,29.95,West,273,2.0,10.0,66,0.00,CLR,,0.00,WeatherDisplay:10.37,2013-03-19 13:50:00,
2013-03-19 08:55:00,8.3,-1.1,29.95,WNW,292,0.0,9.0,65,0.00,CLR,,0.00,WeatherDisplay:10.37,2013-03-19 13:55:00,
2013-03-19 09:00:00,8.4,-0.9,29.95,WNW,297,10.0,10.0,65,0.00,CLR,,0.00,WeatherDisplay:10.37,2013-03-19 14:00:00,
2013-03-19 09:05:00,8.6,-0.8,29.95,WNW,299,10.0,10.0,65,0.00,CLR,,0.00,WeatherDisplay:10.37,2013-03-19 14:05:00,
2013-03-19 09:10:00,9.0,-0.8,29.95,WNW,299,16.0,16.0,64,0.00,CLR,,0.00,WeatherDisplay:10.37,2013-03-19 14:10:00,
2013-03-19 09:15:00,9.0,-0.7,29.96,WNW,291,14.0,14.0,64,0.00,CLR,,0.00,WeatherDisplay:10.37,2013-03-19 14:15:00,
2013-03-19 09:20:00,9.3,-0.7,29.96,WNW,291,1.0,26.0,63,0.00,,,0.00,WeatherDisplay:10.37,2013-03-19 14:20:00,
2013-03-19 09:25:00,9.7,-0.1,29.96,WNW,286,10.0,12.0,64,0.00,CLR,,0.00,WeatherDisplay:10.37,2013-03-19 14:25:00,
2013-03-19 09:30:00,9.7,-0.4,29.96,NW,308,8.0,12.0,63,0.00,CLR,,0.00,WeatherDisplay:10.37,2013-03-19 14:30:00,
2013-03-19 09:35:00,10.2,-0.2,29.97,NW,317,14.0,15.0,62,0.00,CLR,,0.00,WeatherDisplay:10.37,2013-03-19 14:35:00,
2013-03-19 09:40:00,10.6,0.1,29.96,NW,309,7.0,10.0,62,0.00,CLR,,0.00,WeatherDisplay:10.37,2013-03-19 14:40:00,
2013-03-19 09:45:00,10.8,0.3,29.96,NW,313,10.0,10.0,62,0.00,CLR,,0.00,WeatherDisplay:10.37,2013-03-19 14:45:00,
2013-03-19 09:50:00,11.1,0.3,29.97,NW,319,15.0,15.0,61,0.00,CLR,,0.00,WeatherDisplay:10.37,2013-03-19 14:50:00,
2013-03-19 09:55:00,11.3,0.5,29.97,NW,309,6.0,14.0,61,0.00,CLR,,0.00,WeatherDisplay:10.37,2013-03-19 14:55:00,
2013-03-19 10:00:00,11.7,0.8,29.97,WNW,301,2.0,10.0,61,0.00,CLR,,0.00,WeatherDisplay:10.37,2013-03-19 15:00:00,
2013-03-19 10:05:00,11.8,1.0,29.97,WNW,294,6.0,9.0,61,0.00,CLR,,0.00,WeatherDisplay:10.37,2013-03-19 15:05:00,
2013-03-19 10:10:00,12.0,0.8,29.97,NW,310,12.0,12.0,60,0.00,CLR,,0.00,WeatherDisplay:10.37,2013-03-19 15:10:00,
2013-03-19 10:15:00,12.2,0.6,29.97,NW,306,15.0,15.0,59,0.00,CLR,,0.00,WeatherDisplay:10.37,2013-03-19 15:15:00,
2013-03-19 10:20:00,12.4,0.8,29.97,West,280,0.0,10.0,59,0.00,CLR,,0.00,WeatherDisplay:10.37,2013-03-19 15:20:00,
2013-03-19 10:25:00,12.7,1.1,29.97,WNW,283,9.0,12.0,59,0.00,CLR,,0.00,WeatherDisplay:10.37,2013-03-19 15:25:00,
2013-03-19 10:35:00,13.1,1.1,29.98,WNW,292,9.0,12.0,58,0.00,CLR,,0.00,WeatherDisplay:10.37,2013-03-19 15:35:00,
2013-03-19 10:40:00,13.3,1.2,29.98,WNW,296,10.0,14.0,58,0.00,CLR,,0.00,WeatherDisplay:10.37,2013-03-19 15:40:00,
2013-03-19 10:45:00,13.6,0.8,29.98,WNW,288,14.0,14.0,56,0.00,CLR,,0.00,WeatherDisplay:10.37,2013-03-19 15:45:00,
2013-03-19 10:50:00,13.8,1.4,29.98,WNW,291,2.0,14.0,57,0.00,CLR,,0.00,WeatherDisplay:10.37,2013-03-19 15:50:00,
2013-03-19 10:55:00,14.2,1.7,29.98,WNW,290,8.0,14.0,57,0.00,CLR,,0.00,WeatherDisplay:10.37,2013-03-19 15:55:00,
2013-03-19 11:00:00,14.7,1.8,29.98,WNW,283,5.0,14.0,56,0.00,CLR,,0.00,WeatherDisplay:10.37,2013-03-19 16:00:00,
2013-03-19 11:05:00,14.8,1.9,29.98,West,279,13.0,14.0,56,0.00,CLR,,0.00,WeatherDisplay:10.37,2013-03-19 16:05:00,
2013-03-19 11:10:00,15.1,2.2,29.99,WNW,296,14.0,14.0,56,0.00,CLR,,0.00,WeatherDisplay:10.37,2013-03-19 16:10:00,
2013-03-19 11:15:00,15.4,2.1,29.99,WNW,297,17.0,17.0,55,0.00,CLR,,0.00,WeatherDisplay:10.37,2013-03-19 16:15:00,
2013-03-19 11:20:00,15.6,2.7,29.99,WNW,285,12.0,12.0,56,0.00,CLR,,0.00,WeatherDisplay:10.37,2013-03-19 16:20:00,
2013-03-19 11:25:00,16.0,2.6,29.99,West,267,10.0,10.0,55,0.00,CLR,,0.00,WeatherDisplay:10.37,2013-03-19 16:25:00,
2013-03-19 11:30:00,16.0,2.2,29.99,West,266,14.0,20.0,54,0.00,CLR,,0.00,WeatherDisplay:10.37,2013-03-19 16:30:00,
2013-03-19 11:35:00,16.3,3.0,29.99,West,277,14.0,20.0,55,0.00,CLR,,0.00,WeatherDisplay:10.37,2013-03-19 16:35:00,
2013-03-19 11:40:00,16.5,2.7,30.00,WNW,287,8.0,13.0,54,0.00,CLR,,0.00,WeatherDisplay:10.37,2013-03-19 16:40:00,
2013-03-19 11:50:00,16.5,2.3,30.00,West,270,8.0,12.0,53,0.00,CLR,,0.00,WeatherDisplay:10.37,2013-03-19 16:50:00,
2013-03-19 11:55:00,16.7,2.5,30.00,West,275,2.0,9.0,53,0.00,CLR,,0.00,WeatherDisplay:10.37,2013-03-19 16:55:00,
2013-03-19 12:05:00,17.1,2.8,30.00,West,281,7.0,8.0,53,0.00,CLR,,0.00,WeatherDisplay:10.37,2013-03-19 17:05:00,
2013-03-19 12:10:00,17.2,3.0,30.00,West,275,0.0,18.0,53,0.00,CLR,,0.00,WeatherDisplay:10.37,2013-03-19 17:10:00,
2013-03-19 12:15:00,17.4,3.2,30.00,West,279,15.0,15.0,53,0.00,CLR,,0.00,WeatherDisplay:10.37,2013-03-19 17:15:00,
2013-03-19 12:20:00,17.4,3.2,30.00,West,276,9.0,12.0,53,0.00,CLR,,0.00,WeatherDisplay:10.37,2013-03-19 17:20:00,
2013-03-19 12:25:00,17.7,3.0,30.00,West,274,1.0,14.0,52,0.00,CLR,,0.00,WeatherDisplay:10.37,2013-03-19 17:25:00,
2013-03-19 12:30:00,18.0,3.7,30.00,West,268,7.0,8.0,53,0.00,CLR,,0.00,WeatherDisplay:10.37,2013-03-19 17:30:00,
2013-03-19 12:35:00,18.3,4.0,30.00,West,268,18.0,18.0,53,0.00,CLR,,0.00,WeatherDisplay:10.37,2013-03-19 17:35:00,
2013-03-19 12:40:00,18.4,4.1,30.00,West,278,15.0,16.0,53,0.00,CLR,,0.00,WeatherDisplay:10.37,2013-03-19 17:40:00,
2013-03-19 12:45:00,18.9,4.1,30.00,WNW,288,6.0,14.0,52,0.00,CLR,,0.00,WeatherDisplay:10.37,2013-03-19 17:45:00,
2013-03-19 12:50:00,19.2,4.0,30.00,WNW,293,12.0,12.0,51,0.00,CLR,,0.00,WeatherDisplay:10.37,2013-03-19 17:50:00,
2013-03-19 12:55:00,19.4,4.2,30.00,WNW,283,8.0,13.0,51,0.00,CLR,,0.00,WeatherDisplay:10.37,2013-03-19 17:55:00,
2013-03-19 13:00:00,19.6,3.9,30.01,West,275,10.0,13.0,50,0.00,CLR,,0.00,WeatherDisplay:10.37,2013-03-19 18:00:00,
2013-03-19 13:05:00,19.6,4.4,30.00,West,264,1.0,7.0,51,0.00,CLR,,0.00,WeatherDisplay:10.37,2013-03-19 18:05:00,
2013-03-19 13:10:00,19.8,4.9,30.00,West,260,12.0,12.0,52,0.00,CLR,,0.00,WeatherDisplay:10.37,2013-03-19 18:10:00,
2013-03-19 13:15:00,19.9,4.7,30.01,WSW,251,1.0,7.0,51,0.00,CLR,,0.00,WeatherDisplay:10.37,2013-03-19 18:15:00,
2013-03-19 13:20:00,19.9,5.1,30.01,WSW,251,9.0,9.0,52,0.00,CLR,,0.00,WeatherDisplay:10.37,2013-03-19 18:20:00,
2013-03-19 13:25:00,20.0,4.8,30.01,West,269,9.0,16.0,51,0.00,CLR,,0.00,WeatherDisplay:10.37,2013-03-19 18:25:00,
2013-03-19 13:30:00,20.1,4.4,30.01,WSW,252,22.0,22.0,50,0.00,CLR,,0.00,WeatherDisplay:10.37,2013-03-19 18:30:00,
2013-03-19 13:35:00,20.1,4.9,30.01,WSW,257,12.0,12.0,51,0.00,CLR,,0.00,WeatherDisplay:10.37,2013-03-19 18:35:00,
2013-03-19 13:40:00,20.1,4.4,30.01,West,272,8.0,14.0,50,0.00,CLR,,0.00,WeatherDisplay:10.37,2013-03-19 18:40:00,
2013-03-19 13:45:00,20.3,4.6,30.01,West,267,7.0,7.0,50,0.00,CLR,,0.00,WeatherDisplay:10.37,2013-03-19 18:45:00,
2013-03-19 13:50:00,20.8,5.5,30.01,West,280,7.0,8.0,51,0.00,CLR,,0.00,WeatherDisplay:10.37,2013-03-19 18:50:00,
2013-03-19 13:55:00,21.0,4.8,30.01,WNW,286,1.0,13.0,49,0.00,CLR,,0.00,WeatherDisplay:10.37,2013-03-19 18:55:00,
2013-03-19 14:00:00,21.4,5.2,30.01,West,277,0.0,7.0,49,0.00,CLR,,0.00,WeatherDisplay:10.37,2013-03-19 19:00:00,
2013-03-19 14:10:00,21.7,5.0,30.01,WNW,284,13.0,13.0,48,0.00,CLR,,0.00,WeatherDisplay:10.37,2013-03-19 19:10:00,
2013-03-19 14:15:00,21.9,5.7,30.01,WNW,287,5.0,13.0,49,0.00,CLR,,0.00,WeatherDisplay:10.37,2013-03-19 19:15:00,
2013-03-19 14:25:00,21.9,5.7,30.01,WNW,286,15.0,15.0,49,0.00,CLR,,0.00,WeatherDisplay:10.37,2013-03-19 19:25:00,
2013-03-19 14:30:00,21.7,5.5,30.01,WNW,285,8.0,8.0,49,0.00,CLR,,0.00,WeatherDisplay:10.37,2013-03-19 19:30:00,
2013-03-19 14:35:00,21.9,5.7,30.01,West,266,14.0,14.0,49,0.00,CLR,,0.00,WeatherDisplay:10.37,2013-03-19 19:35:00,
2013-03-19 14:40:00,21.9,5.2,30.01,West,270,0.0,12.0,48,0.00,CLR,,0.00,WeatherDisplay:10.37,2013-03-19 19:40:00,
2013-03-19 14:45:00,21.9,5.7,30.01,West,278,10.0,10.0,49,0.00,CLR,,0.00,WeatherDisplay:10.37,2013-03-19 19:45:00,
2013-03-19 14:50:00,22.1,5.8,30.01,West,281,18.0,18.0,49,0.00,CLR,,0.00,WeatherDisplay:10.37,2013-03-19 19:50:00,
2013-03-19 14:55:00,22.1,5.3,30.01,West,274,10.0,21.0,48,0.00,CLR,,0.00,WeatherDisplay:10.37,2013-03-19 19:55:00,
2013-03-19 15:00:00,22.1,5.8,30.01,West,266,13.0,21.0,49,0.00,CLR,,0.00,WeatherDisplay:10.37,2013-03-19 20:00:00,
2013-03-19 15:05:00,22.5,6.2,30.01,West,277,21.0,21.0,49,0.00,CLR,,0.00,WeatherDisplay:10.37,2013-03-19 20:05:00,
2013-03-19 15:10:00,22.7,6.4,30.01,West,277,7.0,17.0,49,0.00,CLR,,0.00,WeatherDisplay:10.37,2013-03-19 20:10:00,
2013-03-19 15:15:00,22.8,6.5,30.01,West,262,10.0,10.0,49,0.00,CLR,,0.00,WeatherDisplay:10.37,2013-03-19 20:15:00,
2013-03-19 15:20:00,23.0,6.2,30.02,West,266,12.0,12.0,48,0.00,CLR,,0.00,WeatherDisplay:10.37,2013-03-19 20:20:00,
2013-03-19 15:25:00,22.8,6.0,30.02,West,274,16.0,16.0,48,0.00,CLR,,0.00,WeatherDisplay:10.37,2013-03-19 20:25:00,
2013-03-19 15:30:00,22.8,6.0,30.02,West,264,10.0,14.0,48,0.00,CLR,,0.00,WeatherDisplay:10.37,2013-03-19 20:30:00,
2013-03-19 15:35:00,22.8,6.0,30.02,WSW,250,8.0,10.0,48,0.00,CLR,,0.00,WeatherDisplay:10.37,2013-03-19 20:35:00,
2013-03-19 15:40:00,23.0,6.2,30.02,WSW,257,22.0,22.0,48,0.00,CLR,,0.00,WeatherDisplay:10.37,2013-03-19 20:40:00,
2013-03-19 15:45:00,22.8,6.0,30.02,West,262,13.0,16.0,48,0.00,CLR,,0.00,WeatherDisplay:10.37,2013-03-19 20:45:00,
2013-03-19 15:50:00,22.8,6.0,30.02,WSW,256,17.0,17.0,48,0.00,CLR,,0.00,WeatherDisplay:10.37,2013-03-19 20:50:00,
2013-03-19 15:55:00,22.8,6.0,30.02,West,269,12.0,15.0,48,0.00,CLR,,0.00,WeatherDisplay:10.37,2013-03-19 20:55:00,
2013-03-19 16:00:00,23.2,6.4,30.02,West,274,9.0,15.0,48,0.00,CLR,,0.00,WeatherDisplay:10.37,2013-03-19 21:00:00,
2013-03-19 16:05:00,23.9,6.6,30.02,West,280,10.0,10.0,47,0.00,CLR,,0.00,WeatherDisplay:10.37,2013-03-19 21:05:00,
2013-03-19 16:10:00,24.6,6.8,30.02,WNW,293,0.0,8.0,46,0.00,CLR,,0.00,WeatherDisplay:10.37,2013-03-19 21:10:00,
2013-03-19 16:15:00,26.2,8.2,30.02,WNW,283,10.0,10.0,46,0.00,CLR,,0.00,WeatherDisplay:10.37,2013-03-19 21:15:00,
2013-03-19 16:20:00,26.4,7.4,30.02,WNW,288,17.0,17.0,44,0.00,CLR,,0.00,WeatherDisplay:10.37,2013-03-19 21:20:00,
2013-03-19 16:25:00,26.2,6.7,30.02,WNW,285,10.0,15.0,43,0.00,CLR,,0.00,WeatherDisplay:10.37,2013-03-19 21:25:00,
2013-03-19 16:30:00,25.9,6.9,30.03,West,274,12.0,12.0,44,0.00,CLR,,0.00,WeatherDisplay:10.37,2013-03-19 21:30:00,
2013-03-19 16:35:00,25.9,6.9,30.03,WSW,256,14.0,21.0,44,0.00,CLR,,0.00,WeatherDisplay:10.37,2013-03-19 21:35:00,
2013-03-19 16:40:00,25.9,7.4,30.03,West,267,9.0,12.0,45,0.00,CLR,,0.00,WeatherDisplay:10.37,2013-03-19 21:40:00,
2013-03-19 16:45:00,26.1,7.1,30.03,West,280,8.0,8.0,44,0.00,CLR,,0.00,WeatherDisplay:10.37,2013-03-19 21:45:00,
2013-03-19 16:50:00,26.2,7.8,30.03,West,278,2.0,10.0,45,0.00,CLR,,0.00,WeatherDisplay:10.37,2013-03-19 21:50:00,
2013-03-19 17:00:00,25.2,6.8,30.03,West,270,10.0,10.0,45,0.00,CLR,,0.00,WeatherDisplay:10.37,2013-03-19 22:00:00,
2013-03-19 17:05:00,24.6,6.3,30.04,West,266,14.0,14.0,45,0.00,CLR,,0.00,WeatherDisplay:10.37,2013-03-19 22:05:00,
2013-03-19 17:10:00,24.4,6.6,30.03,West,262,14.0,14.0,46,0.00,CLR,,0.00,WeatherDisplay:10.37,2013-03-19 22:10:00,
2013-03-19 17:15:00,24.1,5.8,30.04,West,270,18.0,18.0,45,0.00,CLR,,0.00,WeatherDisplay:10.37,2013-03-19 22:15:00,
2013-03-19 17:20:00,23.5,5.8,30.04,West,263,22.0,22.0,46,0.00,CLR,,0.00,WeatherDisplay:10.37,2013-03-19 22:20:00,
2013-03-19 17:30:00,23.4,5.6,30.04,WNW,289,14.0,14.0,46,0.00,CLR,,0.00,WeatherDisplay:10.37,2013-03-19 22:30:00,
2013-03-19 17:35:00,23.2,5.9,30.05,West,279,8.0,10.0,47,0.00,CLR,,0.00,WeatherDisplay:10.37,2013-03-19 22:35:00,
2013-03-19 17:40:00,22.8,5.6,30.05,West,277,8.0,14.0,47,0.00,CLR,,0.00,WeatherDisplay:10.37,2013-03-19 22:40:00,
2013-03-19 17:45:00,22.8,5.6,30.05,West,276,5.0,13.0,47,0.00,CLR,,0.00,WeatherDisplay:10.37,2013-03-19 22:45:00,
2013-03-19 17:50:00,22.6,5.9,30.05,West,272,12.0,12.0,48,0.00,CLR,,0.00,WeatherDisplay:10.37,2013-03-19 22:50:00,
2013-03-19 17:55:00,22.1,5.4,30.05,West,278,13.0,13.0,48,0.00,CLR,,0.00,WeatherDisplay:10.37,2013-03-19 22:55:00,
2013-03-19 18:00:00,22.1,5.4,30.05,West,268,6.0,15.0,48,0.00,CLR,,0.00,WeatherDisplay:10.37,2013-03-19 23:00:00,
2013-03-19 18:05:00,21.9,5.2,30.05,West,265,7.0,9.0,48,0.00,CLR,,0.00,WeatherDisplay:10.37,2013-03-19 23:05:00,
2013-03-19 18:10:00,21.6,4.9,30.06,WNW,290,8.0,8.0,48,0.00,CLR,,0.00,WeatherDisplay:10.37,2013-03-19 23:10:00,
2013-03-19 18:15:00,21.4,4.7,30.06,WNW,289,14.0,14.0,48,0.00,CLR,,0.00,WeatherDisplay:10.37,2013-03-19 23:15:00,
2013-03-19 18:20:00,21.3,4.6,30.06,WNW,288,8.0,14.0,48,0.00,CLR,,0.00,WeatherDisplay:10.37,2013-03-19 23:20:00,
2013-03-19 18:25:00,21.0,4.3,30.07,West,280,8.0,8.0,48,0.00,CLR,,0.00,WeatherDisplay:10.37,2013-03-19 23:25:00,
2013-03-19 18:30:00,20.8,4.2,30.07,West,266,1.0,8.0,48,0.00,CLR,,0.00,WeatherDisplay:10.37,2013-03-19 23:30:00,
2013-03-19 18:35:00,20.5,3.9,30.07,WNW,283,15.0,15.0,48,0.00,CLR,,0.00,WeatherDisplay:10.37,2013-03-19 23:35:00,
2013-03-19 18:40:00,20.1,3.5,30.07,West,281,9.0,9.0,48,0.00,CLR,,0.00,WeatherDisplay:10.37,2013-03-19 23:40:00,
2013-03-19 18:45:00,19.8,3.2,30.07,WNW,301,9.0,9.0,48,0.00,CLR,,0.00,WeatherDisplay:10.37,2013-03-19 23:45:00,
2013-03-19 18:50:00,19.6,3.0,30.07,WNW,301,14.0,14.0,48,0.00,CLR,,0.00,WeatherDisplay:10.37,2013-03-19 23:50:00,
2013-03-19 18:55:00,19.2,3.1,30.07,WNW,301,1.0,7.0,49,0.00,CLR,,0.00,WeatherDisplay:10.37,2013-03-19 23:55:00,
2013-03-19 19:00:00,18.7,2.7,30.08,WNW,296,12.0,14.0,49,0.00,CLR,,0.00,WeatherDisplay:10.37,2013-03-20 00:00:00,
2013-03-19 19:05:00,18.3,2.3,30.08,West,281,1.0,9.0,49,0.00,CLR,,0.00,WeatherDisplay:10.37,2013-03-20 00:05:00,
2013-03-19 19:10:00,18.0,2.0,30.08,West,259,13.0,13.0,49,0.00,CLR,,0.00,WeatherDisplay:10.37,2013-03-20 00:10:00,
2013-03-19 19:15:00,17.4,1.9,30.08,West,261,3.0,9.0,50,0.00,CLR,,0.00,WeatherDisplay:10.37,2013-03-20 00:15:00,
2013-03-19 19:20:00,17.4,1.9,30.08,West,264,7.0,14.0,50,0.00,CLR,,0.00,WeatherDisplay:10.37,2013-03-20 00:20:00,
2013-03-19 19:25:00,17.0,1.6,30.08,West,270,10.0,14.0,50,0.00,CLR,,0.00,WeatherDisplay:10.37,2013-03-20 00:25:00,
2013-03-19 19:30:00,16.7,1.3,30.09,West,267,13.0,14.0,50,0.00,CLR,,0.00,WeatherDisplay:10.37,2013-03-20 00:30:00,
2013-03-19 19:35:00,16.5,1.1,30.09,West,281,14.0,14.0,50,0.00,CLR,,0.00,WeatherDisplay:10.37,2013-03-20 00:35:00,
2013-03-19 19:40:00,16.3,1.3,30.09,WNW,282,2.0,7.0,51,0.00,CLR,,0.00,WeatherDisplay:10.37,2013-03-20 00:40:00,
2013-03-19 19:45:00,16.0,1.0,30.09,West,278,8.0,8.0,51,0.00,CLR,,0.00,WeatherDisplay:10.37,2013-03-20 00:45:00,
2013-03-19 19:50:00,15.6,0.7,30.09,West,272,1.0,7.0,51,0.00,CLR,,0.00,WeatherDisplay:10.37,2013-03-20 00:50:00,
2013-03-19 19:55:00,15.4,0.9,30.10,West,260,7.0,7.0,52,0.00,CLR,,0.00,WeatherDisplay:10.37,2013-03-20 00:55:00,
2013-03-19 20:00:00,15.1,0.6,30.10,WNW,284,10.0,10.0,52,0.00,CLR,,0.00,WeatherDisplay:10.37,2013-03-20 01:00:00,
2013-03-19 20:05:00,14.9,0.4,30.10,WNW,302,21.0,21.0,52,0.00,CLR,,0.00,WeatherDisplay:10.37,2013-03-20 01:05:00,
2013-03-19 20:10:00,14.7,0.3,30.10,West,275,2.0,8.0,52,0.00,CLR,,0.00,WeatherDisplay:10.37,2013-03-20 01:10:00,
2013-03-19 20:15:00,14.5,0.1,30.10,West,272,10.0,12.0,52,0.00,CLR,,0.00,WeatherDisplay:10.37,2013-03-20 01:15:00,
2013-03-19 20:20:00,14.2,-0.3,30.10,WNW,282,7.0,8.0,52,0.00,CLR,,0.00,WeatherDisplay:10.37,2013-03-20 01:20:00,
2013-03-19 20:25:00,13.9,-0.1,30.10,West,274,8.0,8.0,53,0.00,CLR,,0.00,WeatherDisplay:10.37,2013-03-20 01:25:00,
2013-03-19 20:30:00,13.8,-0.2,30.11,West,278,3.0,8.0,53,0.00,CLR,,0.00,WeatherDisplay:10.37,2013-03-20 01:30:00,
2013-03-19 20:35:00,13.6,-0.3,30.11,West,266,15.0,15.0,53,0.00,CLR,,0.00,WeatherDisplay:10.37,2013-03-20 01:35:00,
2013-03-19 20:40:00,13.6,-0.8,30.11,West,277,12.0,15.0,52,0.00,CLR,,0.00,WeatherDisplay:10.37,2013-03-20 01:40:00,
2013-03-19 20:45:00,13.3,-1.1,30.11,West,280,15.0,15.0,52,0.00,CLR,,0.00,WeatherDisplay:10.37,2013-03-20 01:45:00,
2013-03-19 20:50:00,13.3,-1.1,30.11,West,275,7.0,10.0,52,0.00,CLR,,0.00,WeatherDisplay:10.37,2013-03-20 01:50:00,
2013-03-19 20:55:00,13.1,-1.3,30.11,West,273,6.0,12.0,52,0.00,CLR,,0.00,WeatherDisplay:10.37,2013-03-20 01:55:00,
2013-03-19 21:00:00,12.9,-1.4,30.11,WNW,288,20.0,20.0,52,0.00,CLR,,0.00,WeatherDisplay:10.37,2013-03-20 02:00:00,
2013-03-19 21:05:00,12.7,-1.6,30.11,WNW,300,12.0,18.0,52,0.00,CLR,,0.00,WeatherDisplay:10.37,2013-03-20 02:05:00,
2013-03-19 21:10:00,12.7,-2.0,30.11,WNW,287,14.0,14.0,51,0.00,CLR,,0.00,WeatherDisplay:10.37,2013-03-20 02:10:00,
2013-03-19 21:15:00,12.7,-2.0,30.11,West,279,12.0,12.0,51,0.00,CLR,,0.00,WeatherDisplay:10.37,2013-03-20 02:15:00,
2013-03-19 21:20:00,12.5,-2.2,30.11,West,278,8.0,11.0,51,0.00,CLR,,0.00,WeatherDisplay:10.37,2013-03-20 02:20:00,
2013-03-19 21:25:00,12.2,-2.5,30.11,WNW,302,13.0,13.0,51,0.00,CLR,,0.00,WeatherDisplay:10.37,2013-03-20 02:25:00,
2013-03-19 21:30:00,12.0,-2.7,30.11,NW,311,14.0,14.0,51,0.00,CLR,,0.00,WeatherDisplay:10.37,2013-03-20 02:30:00,
2013-03-19 21:35:00,12.0,-2.7,30.11,WNW,295,15.0,15.0,51,0.00,CLR,,0.00,WeatherDisplay:10.37,2013-03-20 02:35:00,
2013-03-19 21:40:00,11.8,-2.8,30.11,WNW,290,13.0,13.0,51,0.00,CLR,,0.00,WeatherDisplay:10.37,2013-03-20 02:40:00,
2013-03-19 21:45:00,11.7,-3.0,30.11,West,277,5.0,9.0,51,0.00,CLR,,0.00,WeatherDisplay:10.37,2013-03-20 02:45:00,
2013-03-19 21:50:00,11.5,-3.2,30.11,WNW,288,9.0,9.0,51,0.00,CLR,,0.00,WeatherDisplay:10.37,2013-03-20 02:50:00,
2013-03-19 21:55:00,11.3,-3.3,30.11,WNW,288,9.0,9.0,51,0.00,CLR,,0.00,WeatherDisplay:10.37,2013-03-20 02:55:00,
2013-03-19 22:00:00,11.1,-3.5,30.11,WNW,296,12.0,12.0,51,0.00,CLR,,0.00,WeatherDisplay:10.37,2013-03-20 03:00:00,
2013-03-19 22:05:00,11.1,-3.5,30.12,WNW,285,7.0,11.0,51,0.00,CLR,,0.00,WeatherDisplay:10.37,2013-03-20 03:05:00,
2013-03-19 22:10:00,10.9,-3.3,30.11,West,274,0.0,12.0,52,0.00,CLR,,0.00,WeatherDisplay:10.37,2013-03-20 03:10:00,
2013-03-19 22:15:00,10.8,-3.8,30.11,West,281,13.0,13.0,51,0.00,CLR,,0.00,WeatherDisplay:10.37,2013-03-20 03:15:00,
2013-03-19 22:20:00,10.7,-3.9,30.11,West,281,7.0,12.0,51,0.00,CLR,,0.00,WeatherDisplay:10.37,2013-03-20 03:20:00,
2013-03-19 22:25:00,10.6,-4.0,30.11,West,281,6.0,9.0,51,0.00,CLR,,0.00,WeatherDisplay:10.37,2013-03-20 03:25:00,
2013-03-19 22:30:00,10.2,-4.4,30.11,WNW,283,9.0,10.0,51,0.00,CLR,,0.00,WeatherDisplay:10.37,2013-03-20 03:30:00,
2013-03-19 22:35:00,10.2,-4.4,30.11,West,280,14.0,14.0,51,0.00,CLR,,0.00,WeatherDisplay:10.37,2013-03-20 03:35:00,
2013-03-19 22:40:00,10.0,-4.5,30.12,WNW,287,7.0,9.0,51,0.00,CLR,,0.00,WeatherDisplay:10.37,2013-03-20 03:40:00,
2013-03-19 22:45:00,10.0,-4.5,30.12,WNW,293,9.0,9.0,51,0.00,CLR,,0.00,WeatherDisplay:10.37,2013-03-20 03:45:00,
2013-03-19 22:50:00,9.7,-4.9,30.12,NW,307,9.0,10.0,51,0.00,CLR,,0.00,WeatherDisplay:10.37,2013-03-20 03:50:00,
2013-03-19 22:55:00,9.7,-4.9,30.12,NNW,328,9.0,10.0,51,0.00,CLR,,0.00,WeatherDisplay:10.37,2013-03-20 03:55:00,
2013-03-19 23:00:00,9.7,-5.3,30.12,NW,315,5.0,10.0,50,0.00,CLR,,0.00,WeatherDisplay:10.37,2013-03-20 04:00:00,
2013-03-19 23:05:00,9.7,-5.3,30.12,WNW,292,10.0,13.0,50,0.00,CLR,,0.00,WeatherDisplay:10.37,2013-03-20 04:05:00,
2013-03-19 23:10:00,9.7,-5.3,30.13,NW,304,6.0,13.0,50,0.00,CLR,,0.00,WeatherDisplay:10.37,2013-03-20 04:10:00,
2013-03-19 23:15:00,9.7,-5.3,30.13,NW,304,2.0,5.0,50,0.00,CLR,,0.00,WeatherDisplay:10.37,2013-03-20 04:15:00,
2013-03-19 23:20:00,9.5,-5.4,30.13,WNW,287,9.0,9.0,50,0.00,CLR,,0.00,WeatherDisplay:10.37,2013-03-20 04:20:00,
2013-03-19 23:25:00,9.3,-5.6,30.13,WNW,297,10.0,10.0,50,0.00,CLR,,0.00,WeatherDisplay:10.37,2013-03-20 04:25:00,
2013-03-19 23:30:00,9.1,-5.8,30.13,NW,315,10.0,10.0,50,0.00,CLR,,0.00,WeatherDisplay:10.37,2013-03-20 04:30:00,
2013-03-19 23:35:00,9.1,-5.8,30.13,NW,307,0.0,10.0,50,0.00,CLR,,0.00,WeatherDisplay:10.37,2013-03-20 04:35:00,
2013-03-19 23:40:00,9.0,-5.5,30.13,WNW,292,0.0,0.0,51,0.00,CLR,,0.00,WeatherDisplay:10.37,2013-03-20 04:40:00,
2013-03-19 23:45:00,8.8,-6.1,30.14,WNW,289,9.0,9.0,50,0.00,CLR,,0.00,WeatherDisplay:10.37,2013-03-20 04:45:00,
2013-03-19 23:50:00,8.6,-5.9,30.14,WNW,299,10.0,10.0,51,0.00,CLR,,0.00,WeatherDisplay:10.37,2013-03-20 04:50:00,
2013-03-19 23:55:00,8.6,-6.3,30.13,WNW,301,5.0,9.0,50,0.00,CLR,,0.00,WeatherDisplay:10.37,2013-03-20 04:55:00,